Time;durP1;ratioP1;P1;durP2;ratioP2;P2;SDS_P1;SDS_P2;PMS_P1;PMS_P2;Temp;Humidity;BMP_temperature;BMP_pressure;BME280_temperature;BME280_humidity;BME280_pressure;Samples;Min_cycle;Max_cycle;Signal;HPM_P1;HPM_P2
2021/07/29 00:00:32;;;;;;;11.02;5.10;;;25.20;64.80;;;;;;4999488;28;20242;-72
2021/07/29 00:02:58;;;;;;;10.48;4.20;;;25.10;64.90;;;;;;5001735;28;20213;-73
2021/07/29 00:05:24;;;;;;;8.93;4.20;;;25.10;64.70;;;;;;5000847;28;20675;-73
2021/07/29 00:07:51;;;;;;;9.07;4.45;;;25.10;64.90;;;;;;5008016;28;20176;-74
2021/07/29 00:10:16;;;;;;;10.93;5.30;;;25.10;64.90;;;;;;4993386;28;20188;-73
2021/07/29 00:12:42;;;;;;;12.30;5.25;;;25.10;65.20;;;;;;5004761;28;20201;-72
2021/07/29 00:15:14;;;;;;;14.23;5.05;;;25.10;65.20;;;;;;5006004;28;20188;-73
2021/07/29 00:20:13;;;;;;;9.75;5.18;;;25.00;66.10;;;;;;5001377;28;20189;-73
2021/07/29 00:22:40;;;;;;;8.80;5.85;;;25.00;66.70;;;;;;5001653;28;20351;-73
2021/07/29 00:25:07;;;;;;;15.57;5.40;;;25.00;67.30;;;;;;5001115;28;20193;-73
2021/07/29 00:27:36;;;;;;;13.38;5.45;;;24.90;69.90;;;;;;5004098;28;20644;-73
2021/07/29 00:30:06;;;;;;;12.20;5.93;;;24.90;68.60;;;;;;4993103;28;20277;-74
2021/07/29 00:32:33;;;;;;;9.15;5.07;;;24.80;67.30;;;;;;5000623;28;20845;-73
2021/07/29 00:35:01;;;;;;;18.50;5.35;;;24.80;67.20;;;;;;4990607;28;20191;-73
2021/07/29 00:37:27;;;;;;;7.20;4.80;;;24.80;68.10;;;;;;4996465;28;20181;-73
2021/07/29 00:39:53;;;;;;;8.32;5.07;;;24.80;67.30;;;;;;4995013;28;20185;-73
2021/07/29 00:42:18;;;;;;;9.70;4.55;;;24.70;67.10;;;;;;4997868;28;20297;-73
2021/07/29 00:44:44;;;;;;;11.73;4.72;;;24.70;66.90;;;;;;5001970;28;20209;-73
2021/07/29 00:47:11;;;;;;;4.90;4.40;;;24.60;67.10;;;;;;5003049;28;20234;-73
2021/07/29 00:49:37;;;;;;;5.43;4.30;;;24.60;66.60;;;;;;5008500;28;20264;-73
2021/07/29 00:52:03;;;;;;;6.00;4.55;;;24.60;66.90;;;;;;4997365;28;20289;-73
2021/07/29 00:54:30;;;;;;;8.93;4.70;;;24.60;66.70;;;;;;4995195;28;20755;-74
2021/07/29 00:57:00;;;;;;;6.03;3.65;;;24.60;66.50;;;;;;4989118;28;20196;-73
2021/07/29 00:59:25;;;;;;;10.90;4.95;;;24.60;66.60;;;;;;5001302;28;20236;-74
2021/07/29 01:01:51;;;;;;;9.93;4.93;;;24.70;66.80;;;;;;5001433;28;20213;-74
2021/07/29 01:04:17;;;;;;;4.97;4.40;;;24.70;67.60;;;;;;5007037;28;20193;-74
2021/07/29 01:06:43;;;;;;;7.75;4.18;;;24.70;67.40;;;;;;4993572;28;20220;-74
2021/07/29 01:09:09;;;;;;;9.68;4.78;;;24.70;67.60;;;;;;4995860;28;20181;-74
2021/07/29 01:11:43;;;;;;;5.18;4.68;;;24.70;67.90;;;;;;4996444;28;20634;-74
2021/07/29 01:14:09;;;;;;;7.40;4.68;;;24.70;69.30;;;;;;5001785;28;20268;-74
2021/07/29 01:16:35;;;;;;;6.60;4.40;;;24.70;68.60;;;;;;4998096;28;20195;-74
2021/07/29 01:19:02;;;;;;;5.38;4.85;;;24.70;67.90;;;;;;4989953;28;20181;-73
2021/07/29 01:21:31;;;;;;;8.43;4.75;;;24.70;68.20;;;;;;4994862;28;20177;-74
2021/07/29 01:23:57;;;;;;;6.30;5.18;;;24.70;68.70;;;;;;5001808;28;20714;-74
2021/07/29 01:26:24;;;;;;;8.80;5.65;;;24.60;68.60;;;;;;4999299;28;20193;-73
2021/07/29 01:28:50;;;;;;;9.68;5.40;;;24.50;69.80;;;;;;4995134;28;20183;-74
2021/07/29 01:31:16;;;;;;;10.85;4.90;;;24.40;68.50;;;;;;5006911;28;20189;-74
2021/07/29 01:33:43;;;;;;;9.15;5.15;;;24.40;68.90;;;;;;4994905;28;20273;-73
2021/07/29 01:36:09;;;;;;;9.52;4.97;;;24.30;69.40;;;;;;4989381;28;20189;-74
2021/07/29 01:38:35;;;;;;;8.80;4.93;;;24.30;69.00;;;;;;5000830;28;20188;-73
2021/07/29 01:41:02;;;;;;;9.52;4.80;;;24.30;69.30;;;;;;4996595;28;20585;-74
2021/07/29 01:43:28;;;;;;;7.30;5.15;;;24.30;69.20;;;;;;4998658;28;20217;-74
2021/07/29 01:45:54;;;;;;;9.15;5.30;;;24.40;69.20;;;;;;5000226;28;20882;-73
2021/07/29 01:48:20;;;;;;;7.55;4.72;;;24.40;69.80;;;;;;4998357;28;20194;-73
2021/07/29 01:50:46;;;;;;;8.35;5.43;;;24.40;69.60;;;;;;5000151;28;20219;-73
2021/07/29 01:53:12;;;;;;;7.03;5.22;;;24.40;69.80;;;;;;4990185;28;20177;-72
2021/07/29 01:55:44;;;;;;;11.52;5.88;;;24.50;69.50;;;;;;4997700;28;20177;-74
2021/07/29 01:58:11;;;;;;;7.65;4.85;;;24.50;69.50;;;;;;5001101;28;20188;-74
2021/07/29 02:00:38;;;;;;;4.03;3.50;;;24.50;69.30;;;;;;4997375;28;20197;-74
2021/07/29 02:03:05;;;;;;;8.52;5.18;;;24.50;69.80;;;;;;5000874;28;20210;-72
2021/07/29 02:05:31;;;;;;;10.60;4.57;;;24.60;70.10;;;;;;4998687;28;20180;-73
2021/07/29 02:08:00;;;;;;;10.90;5.25;;;24.50;70.10;;;;;;4988595;28;20182;-73
2021/07/29 02:10:27;;;;;;;6.25;4.35;;;24.50;69.80;;;;;;4993594;28;20197;-74
2021/07/29 02:12:53;;;;;;;6.35;5.10;;;24.50;69.80;;;;;;4994747;28;20196;-74
2021/07/29 02:15:19;;;;;;;8.60;5.30;;;24.50;70.20;;;;;;4990977;28;20193;-74
2021/07/29 02:17:45;;;;;;;9.05;5.05;;;24.50;69.90;;;;;;5006718;28;20264;-73
2021/07/29 02:20:11;;;;;;;10.40;5.47;;;24.50;69.70;;;;;;5006003;28;20184;-74
2021/07/29 02:22:37;;;;;;;8.52;5.35;;;24.50;70.60;;;;;;4997896;28;20221;-73
2021/07/29 02:25:07;;;;;;;7.78;4.63;;;24.40;70.00;;;;;;4991064;28;20192;-73
2021/07/29 02:27:34;;;;;;;13.98;5.50;;;24.40;70.40;;;;;;5002121;28;20306;-73
2021/07/29 02:29:59;;;;;;;10.15;5.03;;;24.40;70.70;;;;;;4990726;28;20251;-73
2021/07/29 02:32:25;;;;;;;12.35;4.88;;;24.30;70.00;;;;;;5003289;28;20201;-73
2021/07/29 02:34:54;;;;;;;11.40;5.07;;;24.30;70.20;;;;;;4992139;28;20189;-73
2021/07/29 02:37:20;;;;;;;10.45;5.07;;;24.30;70.00;;;;;;4989863;28;20758;-74
2021/07/29 02:39:46;;;;;;;11.27;5.68;;;24.20;69.90;;;;;;4997562;28;20292;-73
2021/07/29 02:42:12;;;;;;;6.40;4.95;;;24.20;69.80;;;;;;4995872;28;20225;-72
2021/07/29 02:44:37;;;;;;;15.00;4.88;;;24.20;69.60;;;;;;4997729;28;20185;-72
2021/07/29 02:47:03;;;;;;;11.00;5.18;;;24.20;69.70;;;;;;5001570;28;20192;-73
2021/07/29 02:49:29;;;;;;;9.35;5.13;;;24.20;69.50;;;;;;4997998;28;20265;-73
2021/07/29 02:51:55;;;;;;;7.30;4.57;;;24.20;69.50;;;;;;4990970;28;20264;-74
2021/07/29 02:54:20;;;;;;;6.97;4.70;;;24.20;69.30;;;;;;4996261;28;20196;-73
2021/07/29 02:56:46;;;;;;;6.97;4.88;;;24.10;69.70;;;;;;4995801;28;20263;-74
2021/07/29 02:59:12;;;;;;;11.48;5.35;;;24.10;69.50;;;;;;5010087;28;20185;-73
2021/07/29 03:01:37;;;;;;;6.75;4.75;;;24.10;69.40;;;;;;5005759;28;20204;-73
2021/07/29 03:04:03;;;;;;;7.45;4.70;;;24.00;69.30;;;;;;5007769;28;20208;-71
2021/07/29 03:06:29;;;;;;;9.18;4.45;;;24.00;69.30;;;;;;4999857;28;20190;-72
2021/07/29 03:08:55;;;;;;;8.57;4.28;;;24.00;70.00;;;;;;4999403;28;20311;-71
2021/07/29 03:11:20;;;;;;;8.82;4.97;;;24.00;70.20;;;;;;4999249;28;20185;-72
2021/07/29 03:13:46;;;;;;;9.30;5.05;;;24.00;70.50;;;;;;5009783;28;20208;-73
2021/07/29 03:16:12;;;;;;;9.32;4.90;;;24.00;70.60;;;;;;5003538;28;20773;-74
2021/07/29 03:18:38;;;;;;;10.45;4.13;;;23.90;70.90;;;;;;5003459;28;20255;-73
2021/07/29 03:21:06;;;;;;;7.32;4.95;;;23.90;71.10;;;;;;4998861;28;20762;-73
2021/07/29 03:23:33;;;;;;;13.88;5.00;;;23.90;71.20;;;;;;5005595;28;20213;-74
2021/07/29 03:25:59;;;;;;;6.90;4.55;;;23.90;71.00;;;;;;4990805;28;20257;-73
2021/07/29 03:28:24;;;;;;;5.78;4.65;;;23.80;70.80;;;;;;5005317;28;20570;-73
2021/07/29 03:30:52;;;;;;;7.82;4.80;;;23.80;70.70;;;;;;5000141;28;20229;-74
2021/07/29 03:33:18;;;;;;;8.90;5.13;;;23.80;70.20;;;;;;5010458;28;20280;-74
2021/07/29 03:35:44;;;;;;;13.90;5.07;;;23.70;69.90;;;;;;5001416;28;20264;-74
2021/07/29 03:38:10;;;;;;;6.20;4.22;;;23.70;70.50;;;;;;4993220;28;20216;-72
2021/07/29 03:40:37;;;;;;;10.77;5.07;;;23.60;70.20;;;;;;4993208;28;20554;-72
2021/07/29 03:43:03;;;;;;;10.00;4.90;;;23.60;71.10;;;;;;4996588;28;20223;-74
2021/07/29 03:45:30;;;;;;;9.18;5.32;;;23.60;71.50;;;;;;4999729;28;20597;-74
2021/07/29 03:47:56;;;;;;;10.15;5.47;;;23.60;72.40;;;;;;5006115;28;20200;-74
2021/07/29 03:50:22;;;;;;;6.53;5.35;;;23.50;72.30;;;;;;4997740;28;20192;-74
2021/07/29 03:52:48;;;;;;;8.45;5.13;;;23.50;72.40;;;;;;5004813;28;20631;-73
2021/07/29 03:55:14;;;;;;;13.65;5.03;;;23.50;72.70;;;;;;4991479;28;20181;-74
2021/07/29 03:57:40;;;;;;;6.78;5.38;;;23.50;73.10;;;;;;4994462;28;20177;-74
2021/07/29 04:00:06;;;;;;;13.65;6.10;;;23.50;73.50;;;;;;5000584;28;20884;-73
2021/07/29 04:02:33;;;;;;;9.52;5.32;;;23.50;73.80;;;;;;5002029;28;20233;-73
2021/07/29 04:05:00;;;;;;;15.18;6.18;;;23.40;73.70;;;;;;5004726;28;20246;-73
2021/07/29 04:07:25;;;;;;;9.85;6.47;;;23.40;74.20;;;;;;4993852;28;20254;-74
2021/07/29 04:09:51;;;;;;;8.02;6.05;;;23.40;74.60;;;;;;4994816;28;21147;-74
2021/07/29 04:12:17;;;;;;;10.63;6.07;;;23.40;75.40;;;;;;4997139;28;20197;-74
2021/07/29 04:14:43;;;;;;;15.57;7.18;;;23.40;75.30;;;;;;4996961;28;20252;-73
2021/07/29 04:17:09;;;;;;;8.48;5.95;;;23.40;76.20;;;;;;4992267;28;20580;-73
2021/07/29 04:19:36;;;;;;;16.23;6.13;;;23.30;76.50;;;;;;5002370;28;20224;-73
2021/07/29 04:22:05;;;;;;;9.50;6.72;;;23.20;76.40;;;;;;4999916;28;20294;-73
2021/07/29 04:24:30;;;;;;;10.13;7.13;;;23.20;76.40;;;;;;4999118;28;20240;-73
2021/07/29 04:26:57;;;;;;;14.15;6.25;;;23.20;77.00;;;;;;4995333;28;20177;-73
2021/07/29 04:29:23;;;;;;;11.45;6.90;;;23.10;76.60;;;;;;5005733;28;20185;-74
2021/07/29 04:31:51;;;;;;;7.18;6.35;;;23.10;76.30;;;;;;5000412;28;20215;-73
2021/07/29 04:34:16;;;;;;;13.52;6.32;;;23.10;76.40;;;;;;4997590;28;20734;-72
2021/07/29 04:36:42;;;;;;;8.23;6.57;;;23.10;76.50;;;;;;5001332;28;20182;-73
2021/07/29 04:39:09;;;;;;;11.02;6.45;;;23.10;76.60;;;;;;4994060;28;20190;-74
2021/07/29 04:41:41;;;;;;;11.15;6.18;;;23.20;76.10;;;;;;4995156;28;20185;-73
2021/07/29 04:44:09;;;;;;;14.88;5.82;;;23.20;75.60;;;;;;4998260;28;20193;-73
2021/07/29 04:46:36;;;;;;;9.93;5.95;;;23.20;75.80;;;;;;4997694;28;20188;-74
2021/07/29 04:49:07;;;;;;;9.70;6.28;;;23.30;75.90;;;;;;4995676;28;20216;-74
2021/07/29 04:51:33;;;;;;;7.25;5.88;;;23.30;75.50;;;;;;4990397;28;20243;-74
2021/07/29 04:53:59;;;;;;;9.30;6.78;;;23.40;75.80;;;;;;4995789;28;20276;-74
2021/07/29 04:56:25;;;;;;;13.48;6.25;;;23.40;76.10;;;;;;4996129;28;20190;-73
2021/07/29 04:58:51;;;;;;;10.35;6.07;;;23.40;75.80;;;;;;4993180;28;20186;-72
2021/07/29 05:01:17;;;;;;;11.98;6.55;;;23.50;76.20;;;;;;4997405;28;20197;-74
2021/07/29 05:03:44;;;;;;;9.23;6.15;;;23.50;75.90;;;;;;5004308;28;20208;-74
2021/07/29 05:06:09;;;;;;;9.57;5.85;;;23.60;76.10;;;;;;4992779;28;20254;-75
2021/07/29 05:08:35;;;;;;;7.13;5.88;;;23.60;75.90;;;;;;5000633;28;20264;-74
2021/07/29 05:11:05;;;;;;;9.88;5.97;;;23.60;76.10;;;;;;5016024;28;20188;-74
2021/07/29 05:13:31;;;;;;;9.75;6.45;;;23.70;75.80;;;;;;4994786;28;20247;-74
2021/07/29 05:15:59;;;;;;;15.30;6.95;;;23.70;75.90;;;;;;5001665;28;20569;-74
2021/07/29 05:18:24;;;;;;;7.78;5.82;;;23.80;75.80;;;;;;5001125;28;20247;-74
2021/07/29 05:20:50;;;;;;;13.57;6.28;;;23.80;75.90;;;;;;5003736;28;21302;-74
2021/07/29 05:23:16;;;;;;;12.82;6.78;;;23.90;75.60;;;;;;5001028;28;20309;-74
2021/07/29 05:25:42;;;;;;;6.38;5.70;;;23.90;75.10;;;;;;4996715;28;20193;-74
2021/07/29 05:28:08;;;;;;;9.18;6.20;;;24.00;74.50;;;;;;4998560;28;20185;-75
2021/07/29 05:30:36;;;;;;;7.95;5.43;;;24.10;73.70;;;;;;5003399;28;20254;-75
2021/07/29 05:33:04;;;;;;;7.93;5.75;;;24.10;73.00;;;;;;5004176;28;20199;-76
2021/07/29 05:35:31;;;;;;;9.48;6.20;;;24.20;73.10;;;;;;5000947;28;20204;-75
2021/07/29 05:37:57;;;;;;;9.25;5.78;;;24.20;73.10;;;;;;4999906;28;20181;-72
2021/07/29 05:40:23;;;;;;;13.43;6.22;;;24.30;73.10;;;;;;5007109;28;20950;-72
2021/07/29 05:42:48;;;;;;;10.43;6.50;;;24.40;73.20;;;;;;5003290;28;20223;-72
2021/07/29 05:45:14;;;;;;;7.90;6.20;;;24.40;73.00;;;;;;5007777;28;20276;-73
2021/07/29 05:47:40;;;;;;;9.60;6.18;;;24.50;73.10;;;;;;4994283;28;20190;-72
2021/07/29 05:50:06;;;;;;;15.57;6.68;;;24.60;73.00;;;;;;5002582;28;20219;-72
2021/07/29 05:52:31;;;;;;;10.55;6.07;;;24.60;73.30;;;;;;5004201;28;20244;-73
2021/07/29 05:54:57;;;;;;;18.58;6.55;;;24.70;72.80;;;;;;5006303;28;20872;-73
2021/07/29 05:57:22;;;;;;;11.00;6.28;;;24.80;72.80;;;;;;5002222;28;20184;-73
2021/07/29 05:59:48;;;;;;;9.15;5.95;;;24.80;72.40;;;;;;5003893;28;20196;-74
2021/07/29 06:02:14;;;;;;;8.20;6.65;;;24.90;72.10;;;;;;5009344;28;20232;-74
2021/07/29 06:04:39;;;;;;;11.88;7.07;;;25.00;72.00;;;;;;5006735;28;20185;-73
2021/07/29 06:07:05;;;;;;;10.38;7.80;;;25.00;72.00;;;;;;5007243;28;20246;-73
2021/07/29 06:09:31;;;;;;;14.05;6.75;;;25.10;71.90;;;;;;5007380;28;20234;-74
2021/07/29 06:11:57;;;;;;;9.52;6.50;;;25.20;71.90;;;;;;5007125;28;20243;-73
2021/07/29 06:14:23;;;;;;;10.75;6.20;;;25.20;71.90;;;;;;5006520;28;20181;-73
2021/07/29 06:16:50;;;;;;;8.50;6.72;;;25.30;71.80;;;;;;5004155;28;20176;-73
2021/07/29 06:19:28;;;;;;;8.60;7.05;;;25.40;71.70;;;;;;5000146;28;20188;-73
2021/07/29 06:21:58;;;;;;;10.02;6.72;;;25.50;71.40;;;;;;5003224;28;20200;-73
2021/07/29 06:24:24;;;;;;;11.02;6.72;;;25.50;70.90;;;;;;5001736;28;20189;-72
2021/07/29 06:26:50;;;;;;;13.18;6.75;;;25.60;70.70;;;;;;5009848;28;20186;-74
2021/07/29 06:29:17;;;;;;;14.55;7.75;;;25.70;70.40;;;;;;5010600;28;20219;-71
2021/07/29 06:31:42;;;;;;;8.63;6.22;;;25.80;70.30;;;;;;5008061;28;20195;-71
2021/07/29 06:34:08;;;;;;;17.90;6.60;;;25.80;70.40;;;;;;5007948;28;20185;-72
2021/07/29 06:36:34;;;;;;;10.13;6.28;;;25.90;69.70;;;;;;5007741;28;20188;-72
2021/07/29 06:38:59;;;;;;;11.88;6.47;;;26.00;69.50;;;;;;5009442;28;20223;-72
2021/07/29 06:41:26;;;;;;;12.95;6.65;;;26.10;69.50;;;;;;5010420;28;20193;-72
2021/07/29 06:43:52;;;;;;;14.07;6.20;;;26.10;69.00;;;;;;5010604;28;20231;-74
2021/07/29 06:46:18;;;;;;;10.43;6.82;;;26.20;68.60;;;;;;5010709;28;20181;-72
2021/07/29 06:48:44;;;;;;;10.52;6.30;;;26.30;68.00;;;;;;5010205;28;20223;-72
2021/07/29 06:51:10;;;;;;;12.68;5.80;;;26.30;67.50;;;;;;5010427;28;20274;-71
2021/07/29 06:53:36;;;;;;;6.95;5.60;;;26.40;67.50;;;;;;5010611;28;20193;-73
2021/07/29 06:56:04;;;;;;;10.43;6.40;;;26.50;67.40;;;;;;5007652;28;21020;-73
2021/07/29 06:58:29;;;;;;;15.45;6.72;;;26.50;67.30;;;;;;5010971;28;20756;-73
2021/07/29 07:00:55;;;;;;;11.88;6.60;;;26.60;67.20;;;;;;5008758;28;20205;-73
2021/07/29 07:03:21;;;;;;;11.93;6.47;;;26.70;67.30;;;;;;5010134;28;20291;-73
2021/07/29 07:05:47;;;;;;;13.38;6.70;;;26.80;66.20;;;;;;5010850;28;20189;-73
2021/07/29 07:08:14;;;;;;;10.85;5.82;;;26.90;65.80;;;;;;5008290;28;20183;-74
2021/07/29 07:10:40;;;;;;;9.85;6.35;;;27.00;65.80;;;;;;5010275;28;20227;-73
2021/07/29 07:13:06;;;;;;;15.35;6.28;;;27.10;65.70;;;;;;5009157;28;20250;-73
2021/07/29 07:15:32;;;;;;;17.50;6.60;;;27.20;65.30;;;;;;5011780;28;20195;-73
2021/07/29 07:17:58;;;;;;;14.48;6.25;;;27.20;64.70;;;;;;5011833;28;20185;-73
2021/07/29 07:20:24;;;;;;;13.05;7.15;;;27.30;64.40;;;;;;5009317;28;20181;-73
2021/07/29 07:22:50;;;;;;;9.10;5.68;;;27.40;64.30;;;;;;5009938;28;20213;-73
2021/07/29 07:25:16;;;;;;;8.18;5.65;;;27.50;64.30;;;;;;5009906;28;20659;-73
2021/07/29 07:27:42;;;;;;;13.32;6.70;;;27.60;64.20;;;;;;5010200;28;20243;-72
2021/07/29 07:30:09;;;;;;;13.02;6.85;;;27.70;64.20;;;;;;5009388;28;20203;-73
2021/07/29 07:32:35;;;;;;;12.38;6.45;;;27.80;63.70;;;;;;5011442;28;20275;-71
2021/07/29 07:35:01;;;;;;;11.20;6.75;;;27.80;63.70;;;;;;5009005;28;20185;-73
2021/07/29 07:37:27;;;;;;;13.05;6.63;;;27.90;64.10;;;;;;5008476;28;20185;-72
2021/07/29 07:39:52;;;;;;;11.65;7.38;;;28.00;64.30;;;;;;5008882;28;20185;-72
2021/07/29 07:42:18;;;;;;;12.13;6.47;;;28.10;64.50;;;;;;5007016;28;20232;-72
2021/07/29 07:44:43;;;;;;;14.73;7.05;;;28.20;64.00;;;;;;5008821;28;20655;-72
2021/07/29 07:47:09;;;;;;;12.43;6.32;;;28.30;63.20;;;;;;5011096;28;20185;-72
2021/07/29 07:49:35;;;;;;;17.63;7.22;;;28.40;63.30;;;;;;5007431;28;20236;-73
2021/07/29 07:52:01;;;;;;;11.20;6.18;;;28.50;63.30;;;;;;5010040;28;20681;-72
2021/07/29 07:54:26;;;;;;;8.85;5.65;;;28.60;62.60;;;;;;5009228;28;20250;-72
2021/07/29 07:56:52;;;;;;;9.13;6.25;;;28.60;63.40;;;;;;5006288;28;20268;-73
2021/07/29 07:59:18;;;;;;;11.10;6.82;;;28.70;62.50;;;;;;5006862;28;20189;-72
2021/07/29 08:01:47;;;;;;;19.25;7.40;;;28.80;62.30;;;;;;5008783;28;20184;-73
2021/07/29 08:04:12;;;;;;;12.77;6.22;;;28.90;61.80;;;;;;5007535;28;20184;-72
2021/07/29 08:06:38;;;;;;;21.70;6.68;;;28.90;61.60;;;;;;5009860;28;20266;-72
2021/07/29 08:09:04;;;;;;;14.68;6.47;;;29.00;61.50;;;;;;5009601;28;20264;-72
2021/07/29 08:11:30;;;;;;;9.88;6.05;;;29.10;61.40;;;;;;5008285;28;20221;-73
2021/07/29 08:13:56;;;;;;;12.25;6.50;;;29.20;62.00;;;;;;5009632;28;20193;-74
2021/07/29 08:16:22;;;;;;;15.77;6.32;;;29.30;62.20;;;;;;5007870;28;20181;-74
2021/07/29 08:18:49;;;;;;;13.32;6.47;;;29.40;62.20;;;;;;5008700;28;20180;-74
2021/07/29 08:21:15;;;;;;;12.13;6.80;;;29.40;61.60;;;;;;5008031;28;20177;-74
2021/07/29 08:23:42;;;;;;;14.55;6.03;;;29.50;61.10;;;;;;5008400;28;20216;-71
2021/07/29 08:26:10;;;;;;;13.23;6.65;;;29.60;61.60;;;;;;5007334;28;20308;-72
2021/07/29 08:28:40;;;;;;;17.40;6.38;;;29.70;62.10;;;;;;5006896;28;20200;-71
2021/07/29 08:31:07;;;;;;;9.45;5.85;;;29.80;61.50;;;;;;5008642;28;20192;-74
2021/07/29 08:33:33;;;;;;;11.52;6.65;;;29.90;61.50;;;;;;5007753;28;20185;-72
2021/07/29 08:35:59;;;;;;;20.65;6.85;;;30.00;60.30;;;;;;5005713;28;20181;-72
2021/07/29 08:38:24;;;;;;;16.58;6.80;;;30.10;60.80;;;;;;5004205;28;20259;-73
2021/07/29 08:40:53;;;;;;;9.70;6.35;;;30.20;61.00;;;;;;5006003;28;20956;-72
2021/07/29 08:43:19;;;;;;;10.27;6.85;;;30.30;60.80;;;;;;5006288;28;20642;-72
2021/07/29 08:45:47;;;;;;;14.77;7.13;;;30.40;60.30;;;;;;5007076;28;20185;-71
2021/07/29 08:48:16;;;;;;;8.88;6.10;;;30.50;60.10;;;;;;5006505;28;20263;-73
2021/07/29 08:50:42;;;;;;;10.18;6.55;;;30.60;60.00;;;;;;5005318;28;20201;-72
2021/07/29 08:53:07;;;;;;;11.70;6.35;;;30.70;60.30;;;;;;5006694;28;20188;-75
2021/07/29 08:55:33;;;;;;;16.30;6.57;;;30.90;60.10;;;;;;5009464;28;20185;-72
2021/07/29 08:58:00;;;;;;;13.27;7.40;;;31.00;59.40;;;;;;5008747;28;20709;-73
2021/07/29 09:00:25;;;;;;;10.90;7.10;;;31.10;59.80;;;;;;5006431;28;20582;-72
2021/07/29 09:02:51;;;;;;;12.38;7.00;;;31.20;59.70;;;;;;5006305;28;20224;-72
2021/07/29 09:05:21;;;;;;;14.10;6.75;;;31.40;59.60;;;;;;5008096;28;20654;-74
2021/07/29 09:08:08;;;;;;;13.60;6.97;;;31.50;59.00;;;;;;5009820;28;20223;-74
2021/07/29 09:10:39;;;;;;;18.33;6.40;;;31.60;58.60;;;;;;5023787;28;20276;-74
2021/07/29 09:13:16;;;;;;;13.10;6.63;;;31.80;58.60;;;;;;5004572;28;20192;-74
2021/07/29 09:15:43;;;;;;;11.70;6.57;;;31.90;58.20;;;;;;5004758;28;20180;-74
2021/07/29 09:18:09;;;;;;;12.25;6.47;;;32.00;56.60;;;;;;5006826;28;20196;-74
2021/07/29 09:20:35;;;;;;;12.45;6.32;;;32.10;56.80;;;;;;5007146;28;20191;-74
2021/07/29 09:23:14;;;;;;;14.63;6.57;;;32.20;56.80;;;;;;5006511;28;20216;-74
2021/07/29 09:25:40;;;;;;;10.40;5.90;;;32.40;56.70;;;;;;5007379;28;20194;-72
2021/07/29 09:28:07;;;;;;;15.27;6.35;;;32.50;56.50;;;;;;5006156;28;20185;-75
2021/07/29 09:30:33;;;;;;;11.20;5.72;;;32.60;56.20;;;;;;5003191;28;20234;-73
2021/07/29 09:33:05;;;;;;;12.32;5.32;;;32.70;56.10;;;;;;5003155;28;20213;-73
2021/07/29 09:35:41;;;;;;;9.70;4.90;;;32.80;54.60;;;;;;5004686;28;20192;-72
2021/07/29 09:38:09;;;;;;;15.32;5.75;;;33.00;54.30;;;;;;5006771;28;20700;-74
2021/07/29 09:40:42;;;;;;;9.07;6.45;;;33.10;54.40;;;;;;5005368;28;20180;-74
2021/07/29 09:43:13;;;;;;;13.02;5.57;;;33.30;54.10;;;;;;5003235;28;20669;-74
2021/07/29 09:45:40;;;;;;;11.35;5.20;;;33.50;54.10;;;;;;5004346;28;20191;-73
2021/07/29 09:48:07;;;;;;;16.45;5.57;;;33.70;53.90;;;;;;5005561;28;20584;-73
2021/07/29 09:50:34;;;;;;;12.95;5.38;;;33.90;52.80;;;;;;5004030;28;20768;-73
2021/07/29 09:53:00;;;;;;;23.63;5.55;;;34.20;52.30;;;;;;5002716;28;20195;-73
2021/07/29 09:55:28;;;;;;;15.95;5.45;;;34.40;51.70;;;;;;5002503;28;20264;-73
2021/07/29 09:57:54;;;;;;;13.98;5.32;;;34.70;51.50;;;;;;5001452;28;20630;-71
2021/07/29 10:00:19;;;;;;;11.68;5.70;;;35.00;51.80;;;;;;5004874;28;20246;-71
2021/07/29 10:02:47;;;;;;;11.25;5.90;;;35.30;51.00;;;;;;5001221;28;20235;-71
2021/07/29 10:05:16;;;;;;;15.27;5.93;;;35.60;51.50;;;;;;5004376;28;20191;-71
2021/07/29 10:07:46;;;;;;;15.52;6.70;;;36.00;50.70;;;;;;5004534;28;20263;-70
2021/07/29 10:10:17;;;;;;;12.40;5.70;;;36.40;49.90;;;;;;5005218;28;20187;-70
2021/07/29 10:12:48;;;;;;;11.18;5.65;;;36.80;49.50;;;;;;5005065;28;20203;-70
2021/07/29 10:15:34;;;;;;;14.77;6.18;;;37.30;47.80;;;;;;5003303;28;20192;-70
2021/07/29 10:18:02;;;;;;;15.75;5.78;;;37.80;48.20;;;;;;5004202;28;20184;-71
2021/07/29 10:20:32;;;;;;;11.80;6.13;;;38.20;47.40;;;;;;5006294;28;20927;-71
2021/07/29 10:23:13;;;;;;;18.65;5.80;;;38.80;47.10;;;;;;5004598;28;20682;-71
2021/07/29 10:25:54;;;;;;;11.55;6.07;;;39.40;46.00;;;;;;5004945;28;20627;-71
2021/07/29 10:28:25;;;;;;;14.02;5.68;;;39.90;44.50;;;;;;5006063;28;20188;-71
2021/07/29 10:30:59;;;;;;;14.27;6.60;;;40.40;45.10;;;;;;5005873;28;20559;-70
2021/07/29 10:33:28;;;;;;;10.00;5.53;;;40.90;45.10;;;;;;5003327;28;20274;-70
2021/07/29 10:35:55;;;;;;;14.07;5.25;;;41.30;44.70;;;;;;5005623;28;20172;-73
2021/07/29 10:38:39;;;;;;;12.30;5.28;;;41.80;44.20;;;;;;5005732;28;20226;-70
2021/07/29 10:41:23;;;;;;;10.70;4.53;;;42.40;42.20;;;;;;5006315;28;20184;-73
2021/07/29 10:43:49;;;;;;;15.32;4.40;;;42.80;39.70;;;;;;5005639;28;20263;-75
2021/07/29 10:46:15;;;;;;;13.18;4.57;;;43.10;40.60;;;;;;5005367;28;20565;-69
2021/07/29 10:48:44;;;;;;;11.07;4.25;;;43.50;42.00;;;;;;5002627;28;20177;-71
2021/07/29 10:51:11;;;;;;;16.05;4.18;;;43.90;39.90;;;;;;5005004;28;20196;-72
2021/07/29 10:53:40;;;;;;;8.10;3.92;;;44.20;40.20;;;;;;5003435;28;20695;-72
2021/07/29 10:56:07;;;;;;;12.23;4.00;;;44.70;40.80;;;;;;5004484;28;20297;-72
2021/07/29 10:58:48;;;;;;;12.77;4.60;;;45.10;39.00;;;;;;5005002;28;20187;-72
2021/07/29 11:01:16;;;;;;;8.40;4.22;;;45.60;39.10;;;;;;5005972;28;20186;-72
2021/07/29 11:03:54;;;;;;;15.07;4.90;;;45.80;39.70;;;;;;5005409;28;20220;-72
2021/07/29 11:06:23;;;;;;;10.82;4.43;;;46.00;39.20;;;;;;5005893;28;20173;-72
2021/07/29 11:08:52;;;;;;;11.20;4.18;;;46.20;40.50;;;;;;5006016;28;20211;-72
2021/07/29 11:11:18;;;;;;;11.70;4.65;;;46.40;39.00;;;;;;5005699;28;20187;-72
2021/07/29 11:13:50;;;;;;;7.55;4.43;;;46.60;40.50;;;;;;5009278;28;20758;-72
2021/07/29 11:16:17;;;;;;;16.15;4.88;;;46.60;37.90;;;;;;5009009;28;20563;-72
2021/07/29 11:18:58;;;;;;;14.77;4.70;;;46.60;38.80;;;;;;5007352;28;20203;-72
2021/07/29 11:21:24;;;;;;;12.23;4.53;;;46.70;37.20;;;;;;5009618;28;20188;-72
2021/07/29 11:23:50;;;;;;;10.93;3.83;;;46.60;37.50;;;;;;5007607;28;20216;-71
2021/07/29 11:26:15;;;;;;;9.57;4.30;;;46.80;39.60;;;;;;5008780;28;20297;-73
2021/07/29 11:28:41;;;;;;;7.97;3.75;;;46.90;37.30;;;;;;5007292;28;20211;-72
2021/07/29 11:31:07;;;;;;;9.13;3.92;;;46.70;37.90;;;;;;5006919;28;20192;-72
2021/07/29 11:33:32;;;;;;;9.55;2.78;;;46.80;39.10;;;;;;5008550;28;20215;-72
2021/07/29 11:36:09;;;;;;;13.07;4.35;;;46.90;37.10;;;;;;5007656;28;20219;-72
2021/07/29 11:38:35;;;;;;;10.95;4.07;;;47.20;36.50;;;;;;5008246;28;21125;-72
2021/07/29 11:41:03;;;;;;;8.43;4.03;;;47.50;37.20;;;;;;5008364;28;20189;-72
2021/07/29 11:43:33;;;;;;;7.97;3.13;;;47.70;38.30;;;;;;5006093;28;20827;-72
2021/07/29 11:46:10;;;;;;;10.00;4.10;;;47.60;35.70;;;;;;5007858;28;20188;-74
2021/07/29 11:48:36;;;;;;;13.85;4.40;;;47.30;35.50;;;;;;5006717;28;20184;-72
2021/07/29 11:51:15;;;;;;;6.50;3.15;;;47.30;36.80;;;;;;5007460;28;20232;-72
2021/07/29 11:53:42;;;;;;;5.32;3.10;;;47.40;34.90;;;;;;5008663;28;20637;-72
2021/07/29 11:56:09;;;;;;;16.20;3.50;;;47.70;37.50;;;;;;5008365;28;20195;-72
2021/07/29 11:58:36;;;;;;;15.55;3.97;;;48.10;36.50;;;;;;5007776;28;20180;-72
2021/07/29 12:01:12;;;;;;;7.85;3.40;;;48.50;37.10;;;;;;5007817;28;20176;-72
2021/07/29 12:03:44;;;;;;;17.85;3.65;;;48.80;33.80;;;;;;5007195;28;20243;-72
2021/07/29 12:06:12;;;;;;;18.02;3.53;;;49.10;35.50;;;;;;5006992;28;20195;-73
2021/07/29 12:08:42;;;;;;;9.70;3.35;;;49.40;35.50;;;;;;5008744;28;20646;-74
2021/07/29 12:11:10;;;;;;;9.07;3.15;;;49.60;34.80;;;;;;5007778;28;20266;-73
2021/07/29 12:13:42;;;;;;;17.23;3.38;;;49.70;33.60;;;;;;5008519;28;20276;-72
2021/07/29 12:16:08;;;;;;;8.90;3.30;;;49.80;34.50;;;;;;5007296;28;20642;-73
2021/07/29 12:18:34;;;;;;;11.23;3.60;;;49.80;34.00;;;;;;5006611;28;20192;-73
2021/07/29 12:21:00;;;;;;;3.95;3.22;;;49.60;34.30;;;;;;5008169;28;20191;-73
2021/07/29 12:23:26;;;;;;;14.15;3.95;;;49.40;34.80;;;;;;5004143;28;20216;-72
2021/07/29 12:25:53;;;;;;;6.55;3.13;;;49.50;35.20;;;;;;5007716;28;20188;-73
2021/07/29 12:28:57;;;;;;;7.78;3.20;;;49.80;35.70;;;;;;5007393;28;20184;-72
2021/07/29 12:31:27;;;;;;;16.40;3.70;;;50.00;32.40;;;;;;4972545;28;21024;-71
2021/07/29 12:33:57;;;;;;;9.20;3.55;;;50.20;35.00;;;;;;4983835;28;20259;-72
2021/07/29 12:36:23;;;;;;;9.00;3.70;;;50.40;34.60;;;;;;4983773;28;20239;-73
2021/07/29 12:39:02;;;;;;;12.77;3.90;;;50.50;33.90;;;;;;4984849;28;20635;-74
2021/07/29 12:41:31;;;;;;;13.27;3.15;;;50.60;32.90;;;;;;4969508;28;20630;-73
2021/07/29 12:44:06;;;;;;;10.88;3.58;;;50.60;34.40;;;;;;4985031;28;20220;-72